createdAt,value
2022-10-18T00:02:16.865Z,8.05
2022-10-18T00:05:21.795Z,3.55
2022-10-18T00:08:27.335Z,6.32
2022-10-18T00:11:32.406Z,5.32
2022-10-18T00:14:37.228Z,3.67
2022-10-18T00:17:42.116Z,6.63
2022-10-18T00:21:01.107Z,3.78
2022-10-18T00:24:06.301Z,3.35
2022-10-18T00:27:10.979Z,3.83
2022-10-18T00:30:15.804Z,4.20
2022-10-18T00:33:20.777Z,6.75
2022-10-18T00:36:28.801Z,6.28
2022-10-18T00:39:33.724Z,4.38
2022-10-18T00:42:38.938Z,3.80
2022-10-18T00:45:44.058Z,6.80
2022-10-18T00:48:48.951Z,4.82
2022-10-18T00:51:59.421Z,6.85
2022-10-18T00:55:05.651Z,6.13
2022-10-18T00:58:12.816Z,3.20
2022-10-18T01:01:17.800Z,5.70
2022-10-18T01:04:23.168Z,5.95
2022-10-18T01:07:37.976Z,5.25
2022-10-18T01:11:00.466Z,9.32
2022-10-18T01:14:39.691Z,4.15
2022-10-18T01:18:26.922Z,4.28
2022-10-18T01:21:59.922Z,3.15
2022-10-18T01:25:17.162Z,4.68
2022-10-18T01:28:49.062Z,4.03
2022-10-18T01:32:02.744Z,3.45
2022-10-18T01:35:13.360Z,3.65
2022-10-18T01:38:19.043Z,4.53
2022-10-18T01:41:25.023Z,4.53
2022-10-18T01:44:32.162Z,5.80
2022-10-18T01:47:37.177Z,4.20
2022-10-18T01:50:42.366Z,3.70
2022-10-18T01:53:47.255Z,4.05
2022-10-18T01:57:23.157Z,4.03
2022-10-18T02:00:41.438Z,3.53
2022-10-18T02:03:48.045Z,3.60
2022-10-18T02:07:00.884Z,3.72
2022-10-18T02:10:31.751Z,4.53
2022-10-18T02:13:40.925Z,8.98
2022-10-18T02:16:53.376Z,6.40
2022-10-18T02:19:58.757Z,4.70
2022-10-18T02:23:06.667Z,3.55
2022-10-18T02:26:11.949Z,5.07
2022-10-18T02:29:16.698Z,7.35
2022-10-18T02:32:43.357Z,5.63
2022-10-18T02:35:53.190Z,4.35
2022-10-18T02:39:05.150Z,5.85
2022-10-18T02:42:11.662Z,6.20
2022-10-18T02:45:17.387Z,5.18
2022-10-18T02:48:22.216Z,6.25
2022-10-18T02:51:26.846Z,6.22
2022-10-18T02:54:31.730Z,4.43
2022-10-18T02:57:37.179Z,6.30
2022-10-18T03:00:42.479Z,4.88
2022-10-18T03:03:47.495Z,3.90
2022-10-18T03:06:52.406Z,4.43
2022-10-18T03:09:57.515Z,4.43
2022-10-18T03:13:02.412Z,4.35
2022-10-18T03:16:07.356Z,2.55
2022-10-18T03:19:12.293Z,3.42
2022-10-18T03:22:17.318Z,4.35
2022-10-18T03:25:22.331Z,7.70
2022-10-18T03:28:27.460Z,5.78
2022-10-18T03:31:33.698Z,6.40
2022-10-18T03:34:38.343Z,3.42
2022-10-18T03:37:43.481Z,4.22
2022-10-18T03:40:48.678Z,3.95
2022-10-18T03:43:53.628Z,5.90
2022-10-18T03:46:58.442Z,8.63
2022-10-18T03:50:03.545Z,9.18
2022-10-18T03:53:08.739Z,5.60
2022-10-18T03:56:13.683Z,8.82
2022-10-18T03:59:18.607Z,6.55
2022-10-18T04:02:23.484Z,6.43
2022-10-18T04:05:30.810Z,9.80
2022-10-18T04:08:36.110Z,10.00
2022-10-18T04:11:41.145Z,9.05
2022-10-18T04:14:45.950Z,15.13
2022-10-18T04:17:50.939Z,8.05
2022-10-18T04:20:55.766Z,12.80
2022-10-18T04:24:01.069Z,13.48
2022-10-18T04:27:07.045Z,13.70
2022-10-18T04:30:11.902Z,14.25
2022-10-18T04:33:17.641Z,11.80
2022-10-18T04:36:22.439Z,14.15
2022-10-18T04:39:27.424Z,13.55
2022-10-18T04:42:32.317Z,12.70
2022-10-18T04:45:37.399Z,12.70
2022-10-18T04:48:42.272Z,13.68
2022-10-18T04:51:47.280Z,16.77
2022-10-18T04:54:52.218Z,22.23
2022-10-18T04:57:57.437Z,25.15
2022-10-18T05:01:08.292Z,15.95
2022-10-18T05:04:13.420Z,14.65
2022-10-18T05:07:18.824Z,11.85
2022-10-18T05:10:23.865Z,14.02
2022-10-18T05:13:29.890Z,12.20
2022-10-18T05:16:34.946Z,18.23
2022-10-18T05:19:39.903Z,19.23
2022-10-18T05:22:44.659Z,13.18
2022-10-18T05:25:49.423Z,7.47
2022-10-18T05:28:54.570Z,8.40
2022-10-18T05:31:59.421Z,11.35
2022-10-18T05:35:04.776Z,9.10
2022-10-18T05:38:09.945Z,9.65
2022-10-18T05:41:15.073Z,9.57
2022-10-18T05:44:20.040Z,10.15
2022-10-18T05:47:24.826Z,12.45
2022-10-18T05:50:29.748Z,13.20
2022-10-18T05:53:37.132Z,11.38
2022-10-18T05:56:43.109Z,10.23
2022-10-18T05:59:48.083Z,11.13
2022-10-18T06:02:54.431Z,10.00
2022-10-18T06:06:04.440Z,6.38
2022-10-18T06:09:09.768Z,10.30
2022-10-18T06:12:14.341Z,9.85
2022-10-18T06:15:19.156Z,11.10
2022-10-18T06:18:24.192Z,11.68
2022-10-18T06:21:29.250Z,13.43
2022-10-18T06:24:34.062Z,13.10
2022-10-18T06:27:38.989Z,9.40
2022-10-18T06:30:44.439Z,10.80
2022-10-18T06:33:49.238Z,11.32
2022-10-18T06:36:56.389Z,9.65
2022-10-18T06:40:01.326Z,9.80
2022-10-18T06:43:20.082Z,10.20
2022-10-18T06:46:26.620Z,11.80
2022-10-18T06:49:31.652Z,7.47
2022-10-18T06:52:36.388Z,12.45
2022-10-18T06:55:41.142Z,8.85
2022-10-18T06:58:46.104Z,11.90
2022-10-18T07:01:50.796Z,15.20
2022-10-18T07:04:55.895Z,11.02
2022-10-18T07:08:01.377Z,11.60
2022-10-18T07:11:07.881Z,11.73
2022-10-18T07:14:16.355Z,16.73
2022-10-18T07:17:21.519Z,13.82
2022-10-18T07:20:26.387Z,12.43
2022-10-18T07:23:36.171Z,11.52
2022-10-18T07:26:42.405Z,15.80
2022-10-18T07:29:48.602Z,12.88
2022-10-18T07:32:53.457Z,17.13
2022-10-18T07:36:03.166Z,12.82
2022-10-18T07:39:08.065Z,10.20
2022-10-18T07:42:12.999Z,13.95
2022-10-18T07:45:17.986Z,12.07
2022-10-18T07:48:22.867Z,15.15
2022-10-18T07:51:28.197Z,12.88
2022-10-18T07:54:32.990Z,9.60
2022-10-18T07:57:37.689Z,24.65
2022-10-18T08:00:42.563Z,10.23
2022-10-18T08:03:47.631Z,10.32
2022-10-18T08:06:52.805Z,12.75
2022-10-18T08:09:57.623Z,9.98
2022-10-18T08:13:02.545Z,11.50
2022-10-18T08:16:11.217Z,12.10
2022-10-18T08:19:16.154Z,13.45
2022-10-18T08:22:22.837Z,10.40
2022-10-18T08:25:29.249Z,13.52
2022-10-18T08:28:36.683Z,12.90
2022-10-18T08:31:41.515Z,10.25
2022-10-18T08:34:47.249Z,10.48
2022-10-18T08:37:52.493Z,10.32
2022-10-18T08:41:18.692Z,15.25
2022-10-18T08:44:29.027Z,13.35
2022-10-18T08:47:37.882Z,11.80
2022-10-18T08:50:43.581Z,10.32
2022-10-18T08:53:59.784Z,12.75
2022-10-18T08:57:13.358Z,15.80
2022-10-18T09:00:21.836Z,11.13
2022-10-18T09:03:54.444Z,9.18
2022-10-18T09:07:43.875Z,9.38
2022-10-18T09:11:12.760Z,9.68
2022-10-18T09:15:08.751Z,9.95
2022-10-18T09:18:28.960Z,10.68
2022-10-18T09:21:54.548Z,13.52
2022-10-18T09:25:19.284Z,11.13
2022-10-18T09:29:05.446Z,11.43
2022-10-18T09:32:46.632Z,10.80
2022-10-18T09:35:59.088Z,14.48
2022-10-18T09:39:20.519Z,9.18
2022-10-18T09:42:36.117Z,10.57
2022-10-18T09:45:44.199Z,10.55
2022-10-18T09:49:00.598Z,8.90
2022-10-18T09:52:09.289Z,11.00
2022-10-18T09:55:28.623Z,12.85
2022-10-18T09:58:46.445Z,11.77
2022-10-18T10:01:51.328Z,15.50
2022-10-18T10:04:56.437Z,9.18
2022-10-18T10:08:02.856Z,9.82
2022-10-18T10:11:32.803Z,9.63
2022-10-18T10:14:44.038Z,9.77
2022-10-18T10:18:07.181Z,11.27
2022-10-18T10:21:16.366Z,7.75
2022-10-18T10:24:34.716Z,8.60
2022-10-18T10:27:44.550Z,13.65
2022-10-18T10:30:50.132Z,6.65
2022-10-18T10:34:14.393Z,9.43
2022-10-18T10:37:31.626Z,9.82
2022-10-18T10:40:50.120Z,9.02
2022-10-18T10:43:55.493Z,7.60
2022-10-18T10:47:00.264Z,11.05
2022-10-18T10:50:12.896Z,6.85
2022-10-18T10:53:27.481Z,7.00
2022-10-18T10:56:37.759Z,9.27
2022-10-18T10:59:54.496Z,10.23
2022-10-18T11:03:28.118Z,10.65
2022-10-18T11:06:48.124Z,9.85
2022-10-18T11:10:16.044Z,11.57
2022-10-18T11:14:27.472Z,7.47
2022-10-18T11:17:52.427Z,8.75
2022-10-18T11:21:26.420Z,11.88
2022-10-18T11:24:32.020Z,13.68
2022-10-18T11:28:04.452Z,14.52
2022-10-18T11:31:30.715Z,14.50
2022-10-18T11:35:07.149Z,12.35
2022-10-18T11:38:30.540Z,9.73
2022-10-18T11:42:17.752Z,9.68
2022-10-18T11:45:56.725Z,9.00
2022-10-18T11:49:28.302Z,12.18
2022-10-18T11:52:49.095Z,12.25
2022-10-18T11:56:12.633Z,9.25
2022-10-18T12:00:06.939Z,13.10
2022-10-18T12:03:53.147Z,9.52
2022-10-18T12:06:59.086Z,12.18
2022-10-18T12:10:11.757Z,9.15
2022-10-18T12:13:41.681Z,9.15
2022-10-18T12:17:20.354Z,11.02
2022-10-18T12:20:34.664Z,7.82
2022-10-18T12:24:11.799Z,9.88
2022-10-18T12:27:34.263Z,8.57
2022-10-18T12:30:51.626Z,11.52
2022-10-18T12:34:21.633Z,13.40
2022-10-18T12:37:57.705Z,8.63
2022-10-18T12:41:03.933Z,9.05
2022-10-18T12:44:32.303Z,13.48
2022-10-18T12:47:38.071Z,11.30
2022-10-18T12:50:44.454Z,11.10
2022-10-18T12:54:10.891Z,14.10
2022-10-18T12:57:24.004Z,11.38
2022-10-18T13:00:37.001Z,9.45
2022-10-18T13:03:58.187Z,10.55
2022-10-18T13:10:36.571Z,8.90
2022-10-18T13:14:25.748Z,11.65
2022-10-18T13:17:47.980Z,7.82
2022-10-18T13:21:11.387Z,17.13
2022-10-18T13:24:35.432Z,13.60
2022-10-18T13:28:27.084Z,13.75
2022-10-18T13:32:00.673Z,10.52
2022-10-18T13:35:45.418Z,12.45
2022-10-18T13:39:02.253Z,9.57
2022-10-18T13:42:36.240Z,12.82
2022-10-18T13:45:41.678Z,10.73
2022-10-18T13:48:54.855Z,13.23
2022-10-18T13:53:05.399Z,12.85
2022-10-18T13:56:48.083Z,15.05
2022-10-18T14:00:48.374Z,15.13
2022-10-18T14:04:30.852Z,17.05
2022-10-18T14:07:39.620Z,18.92
2022-10-18T14:11:41.995Z,15.43
2022-10-18T14:14:59.725Z,20.02
2022-10-18T14:18:33.276Z,11.57
2022-10-18T14:21:49.814Z,16.27
2022-10-18T14:24:58.231Z,16.70
2022-10-18T14:28:48.063Z,14.85
2022-10-18T14:31:57.256Z,16.17
2022-10-18T14:35:31.164Z,18.98
2022-10-18T14:38:28.466Z,16.92
2022-10-18T14:41:40.059Z,17.92
2022-10-18T14:44:54.218Z,14.82
2022-10-18T14:48:14.549Z,19.80
2022-10-18T14:51:20.066Z,14.02
2022-10-18T14:54:36.842Z,14.30
2022-10-18T14:57:41.810Z,12.75
2022-10-18T15:00:48.543Z,15.15
2022-10-18T15:04:05.218Z,13.55
2022-10-18T15:07:16.245Z,18.10
2022-10-18T15:10:29.144Z,119.90
2022-10-18T15:13:36.028Z,22.33
2022-10-18T15:16:41.161Z,32.33
2022-10-18T15:20:03.296Z,19.10
2022-10-18T15:23:31.297Z,23.55
2022-10-18T15:26:36.367Z,23.63
2022-10-18T15:29:43.558Z,26.70
2022-10-18T15:32:54.271Z,20.90
2022-10-18T15:36:09.884Z,16.85
2022-10-18T15:39:24.981Z,16.17
2022-10-18T15:42:39.027Z,23.08
2022-10-18T15:45:50.337Z,31.95
2022-10-18T15:49:23.996Z,76.18
2022-10-18T15:52:39.925Z,85.75
2022-10-18T15:55:57.955Z,57.13
2022-10-18T15:59:21.274Z,27.80
2022-10-18T16:02:26.160Z,22.40
2022-10-18T16:05:32.163Z,18.83
2022-10-18T16:08:48.264Z,24.50
2022-10-18T16:11:56.958Z,36.20
2022-10-18T16:15:02.182Z,31.77
2022-10-18T16:18:07.055Z,27.33
2022-10-18T16:21:22.097Z,32.72
2022-10-18T16:24:27.171Z,14.98
2022-10-18T16:27:32.062Z,14.43
2022-10-18T16:30:37.423Z,11.60
2022-10-18T16:33:42.451Z,9.60
2022-10-18T16:36:47.357Z,16.25
2022-10-18T16:39:52.415Z,22.35
2022-10-18T16:42:57.414Z,20.17
2022-10-18T16:46:21.837Z,26.00
2022-10-18T16:49:30.230Z,21.80
2022-10-18T16:52:35.552Z,22.83
2022-10-18T16:55:42.662Z,15.95
2022-10-18T16:58:49.534Z,15.02
2022-10-18T17:01:58.234Z,11.75
2022-10-18T17:05:03.796Z,13.93
2022-10-18T17:08:22.480Z,20.45
2022-10-18T17:11:28.809Z,22.42
2022-10-18T17:14:39.936Z,19.67
2022-10-18T17:17:46.221Z,19.10
2022-10-18T17:20:54.721Z,21.25
2022-10-18T17:24:06.440Z,16.42
2022-10-18T17:27:14.871Z,17.52
2022-10-18T17:30:20.311Z,18.95
2022-10-18T17:33:25.513Z,13.73
2022-10-18T17:36:37.753Z,17.10
2022-10-18T17:39:47.349Z,16.88
2022-10-18T17:42:53.991Z,18.20
2022-10-18T17:45:59.678Z,17.80
2022-10-18T17:49:04.711Z,13.85
2022-10-18T17:52:14.946Z,12.60
2022-10-18T17:55:20.692Z,9.90
2022-10-18T17:58:25.575Z,13.75
2022-10-18T18:01:30.366Z,10.10
2022-10-18T18:04:35.325Z,11.27
2022-10-18T18:07:40.377Z,12.98
2022-10-18T18:10:45.458Z,17.40
2022-10-18T18:13:50.281Z,14.52
2022-10-18T18:16:55.181Z,12.02
2022-10-18T18:20:00.025Z,14.90
2022-10-18T18:23:05.071Z,13.40
2022-10-18T18:26:11.114Z,13.43
2022-10-18T18:29:16.371Z,11.15
2022-10-18T18:32:21.391Z,12.10
2022-10-18T18:35:26.526Z,9.77
2022-10-18T18:38:31.952Z,13.38
2022-10-18T18:41:38.415Z,12.85
2022-10-18T18:44:45.976Z,17.10
2022-10-18T18:47:50.725Z,11.45
2022-10-18T18:50:55.619Z,12.32
2022-10-18T18:54:00.584Z,11.23
2022-10-18T18:57:06.607Z,11.10
2022-10-18T19:00:13.493Z,8.63
2022-10-18T19:03:18.681Z,9.13
2022-10-18T19:06:24.921Z,13.50
2022-10-18T19:09:29.872Z,12.13
2022-10-18T19:12:34.972Z,13.73
2022-10-18T19:15:40.270Z,9.32
2022-10-18T19:19:07.446Z,11.57
2022-10-18T19:22:12.838Z,9.63
2022-10-18T19:25:20.135Z,10.23
2022-10-18T19:28:28.410Z,15.00
2022-10-18T19:31:35.021Z,11.50
2022-10-18T19:34:41.816Z,13.13
2022-10-18T19:37:47.427Z,15.05
2022-10-18T19:40:53.855Z,14.05
2022-10-18T19:43:59.570Z,14.73
2022-10-18T19:47:07.450Z,19.33
2022-10-18T19:50:12.858Z,18.20
2022-10-18T19:53:18.293Z,14.27
2022-10-18T19:56:26.944Z,14.07
2022-10-18T19:59:32.060Z,14.73
2022-10-18T20:02:36.865Z,19.98
2022-10-18T20:05:41.815Z,18.27
2022-10-18T20:08:47.545Z,19.20
2022-10-18T20:11:53.354Z,18.55
2022-10-18T20:14:58.288Z,21.98
2022-10-18T20:18:03.281Z,19.13
2022-10-18T20:21:09.104Z,20.55
2022-10-18T20:24:14.358Z,20.75
2022-10-18T20:27:19.554Z,21.45
2022-10-18T20:30:24.855Z,23.58
2022-10-18T20:33:30.893Z,25.33
2022-10-18T20:36:37.622Z,23.10
2022-10-18T20:39:42.343Z,30.25
2022-10-18T20:42:47.394Z,20.35
2022-10-18T20:45:59.528Z,21.85
2022-10-18T20:49:08.452Z,26.00
2022-10-18T20:52:13.598Z,22.30
2022-10-18T20:55:18.992Z,23.15
2022-10-18T20:58:23.758Z,22.42
2022-10-18T21:01:34.088Z,22.75
2022-10-18T21:04:42.190Z,21.60
2022-10-18T21:07:47.718Z,23.55
2022-10-18T21:10:52.692Z,20.17
2022-10-18T21:14:00.250Z,23.95
2022-10-18T21:17:05.370Z,20.63
2022-10-18T21:20:11.300Z,22.67
2022-10-18T21:23:16.449Z,19.58
2022-10-18T21:26:24.532Z,18.45
2022-10-18T21:29:30.943Z,24.40
2022-10-18T21:32:36.376Z,23.80
2022-10-18T21:35:41.956Z,18.65
2022-10-18T21:38:47.247Z,18.65
2022-10-18T21:41:51.942Z,11.48
2022-10-18T21:44:56.923Z,16.13
2022-10-18T21:48:04.052Z,18.60
2022-10-18T21:51:09.808Z,8.18
2022-10-18T21:54:16.419Z,6.78
2022-10-18T21:57:21.155Z,7.55
2022-10-18T22:00:26.343Z,6.55
2022-10-18T22:03:31.296Z,7.32
2022-10-18T22:06:36.895Z,7.38
2022-10-18T22:09:42.009Z,5.90
2022-10-18T22:12:47.483Z,5.47
2022-10-18T22:15:52.776Z,6.57
2022-10-18T22:19:01.564Z,6.10
2022-10-18T22:22:06.788Z,5.38
2022-10-18T22:25:12.390Z,3.65
2022-10-18T22:28:17.946Z,6.53
2022-10-18T22:31:27.904Z,2.25
2022-10-18T22:34:33.016Z,2.13
2022-10-18T22:37:38.749Z,4.63
2022-10-18T22:40:43.797Z,1.20
2022-10-18T22:43:50.988Z,2.60
2022-10-18T22:46:56.189Z,1.98
2022-10-18T22:50:01.398Z,3.67
2022-10-18T22:53:07.059Z,1.50
2022-10-18T22:56:17.424Z,2.03
2022-10-18T22:59:22.318Z,0.90
2022-10-18T23:02:27.928Z,1.88
2022-10-18T23:05:42.454Z,1.38
2022-10-18T23:08:47.618Z,0.80
2022-10-18T23:11:53.477Z,1.58
2022-10-18T23:14:59.401Z,2.17
2022-10-18T23:18:06.102Z,1.63
2022-10-18T23:21:13.561Z,1.10
2022-10-18T23:24:22.542Z,0.77
2022-10-18T23:27:29.718Z,2.47
2022-10-18T23:30:38.281Z,2.50
2022-10-18T23:33:45.277Z,1.13
2022-10-18T23:36:50.205Z,0.95
2022-10-18T23:39:55.609Z,2.45
2022-10-18T23:43:00.392Z,0.63
2022-10-18T23:46:05.975Z,0.73
2022-10-18T23:49:11.203Z,1.30
2022-10-18T23:52:17.608Z,1.20
2022-10-18T23:55:22.513Z,1.08
2022-10-18T23:58:29.084Z,1.42
